KMTO/MTO METAR and TAF weather

Enter ICAO airport designator
Station Type Date Time Source
KMTO METAR 2021/07/24 20:53 UTC NOAA

KMTO 242053Z AUTO 21007KT 10SM CLR 32/26 A2993 RMK AO2 SLP129 6//// T03170261 58018 $


Station Type Date Time Source
KMTO Decoded METAR 2021/07/24 20:53 UTC NOAA

MATTOON/CHARLESTON COLES CO, IL, United States (KMTO) 39-28N 88-16W 214M
Jul 24, 2021 - 04:53 PM EDT / 2021.07.24 2053 UTC
Wind: from the SSW (210 degrees) at 8 MPH (7 KT):0
Visibility: 10 mile(s):0
Sky conditions: clear
Temperature: 89.1 F (31.7 C)
Heat index: 104.5 F (40.3 C):1
Dew Point: 79.0 F (26.1 C)
Relative Humidity: 72%
Pressure (altimeter): 29.93 in. Hg (1013 hPa)
Pressure tendency: 0.05 inches (1.8 hPa) lower than three hours ago
ob: KMTO 242053Z AUTO 21007KT 10SM CLR 32/26 A2993 RMK AO2 SLP129 6//// T03170261 58018
cycle: 21

Station Type Date Time Source
KMTO TAF UTC NOAA

Error!

Example: see airport list